createdAt,value
2023-01-26T00:02:05.028Z,96173.03
2023-01-26T00:04:33.151Z,96176.46
2023-01-26T00:07:02.219Z,96174.52
2023-01-26T00:09:30.473Z,96169.85
2023-01-26T00:11:58.574Z,96165.02
2023-01-26T00:14:26.832Z,96162.04
2023-01-26T00:16:55.102Z,96158.88
2023-01-26T00:19:23.600Z,96156.98
2023-01-26T00:21:51.958Z,96157.43
2023-01-26T00:24:20.382Z,96154.04
2023-01-26T00:26:48.514Z,96150.35
2023-01-26T00:29:16.806Z,96147.41
2023-01-26T00:31:44.964Z,96147.19
2023-01-26T00:34:13.364Z,96147.96
2023-01-26T00:36:43.296Z,96144.55
2023-01-26T00:39:11.342Z,96147.37
2023-01-26T00:41:58.481Z,96147.58
2023-01-26T00:44:26.629Z,96148.77
2023-01-26T00:46:54.849Z,96143.34
2023-01-26T00:49:23.198Z,96140.23
2023-01-26T00:51:51.538Z,96136.86
2023-01-26T00:54:19.553Z,96139.05
2023-01-26T00:56:48.357Z,96141.48
2023-01-26T00:59:16.437Z,96131.89
2023-01-26T01:01:47.812Z,96131.23
2023-01-26T01:04:16.656Z,96129.75
2023-01-26T01:06:45.243Z,96128.52
2023-01-26T01:09:13.818Z,96125.32
2023-01-26T01:11:43.693Z,96117.91
2023-01-26T01:14:13.573Z,96121.80
2023-01-26T01:16:41.940Z,96114.84
2023-01-26T01:19:14.307Z,96115.78
2023-01-26T01:21:43.917Z,96116.58
2023-01-26T01:24:12.629Z,96109.46
2023-01-26T01:26:41.113Z,96112.20
2023-01-26T01:29:12.642Z,96107.07
2023-01-26T01:31:41.849Z,96113.73
2023-01-26T01:34:10.742Z,96112.58
2023-01-26T01:36:39.024Z,96106.13
2023-01-26T01:39:07.134Z,96100.71
2023-01-26T01:41:35.375Z,96096.90
2023-01-26T01:44:12.755Z,96097.74
2023-01-26T01:46:44.248Z,96091.14
2023-01-26T01:49:31.840Z,96093.52
2023-01-26T01:52:05.425Z,96095.20
2023-01-26T01:54:40.367Z,96092.01
2023-01-26T01:57:15.959Z,96084.95
2023-01-26T01:59:51.789Z,96079.02
2023-01-26T02:02:20.223Z,96074.10
2023-01-26T02:04:49.383Z,96074.02
2023-01-26T02:07:17.844Z,96070.42
2023-01-26T02:10:05.183Z,96068.54
2023-01-26T02:12:34.170Z,96068.98
2023-01-26T02:15:02.968Z,96068.81
2023-01-26T02:17:31.148Z,96061.67
2023-01-26T02:20:10.221Z,96053.75
2023-01-26T02:23:01.916Z,96046.31
2023-01-26T02:25:36.318Z,96042.61
2023-01-26T02:28:04.719Z,96039.42
2023-01-26T02:30:32.902Z,96037.38
2023-01-26T02:33:01.360Z,96033.21
2023-01-26T02:35:29.436Z,96025.27
2023-01-26T02:37:58.110Z,96019.80
2023-01-26T02:40:26.423Z,96015.69
2023-01-26T02:42:55.391Z,96015.26
2023-01-26T02:45:24.183Z,96019.33
2023-01-26T02:47:52.569Z,96022.64
2023-01-26T02:50:20.985Z,96021.71
2023-01-26T02:52:49.146Z,96017.16
2023-01-26T02:55:22.652Z,96019.50
2023-01-26T02:57:55.595Z,96015.34
2023-01-26T03:00:26.384Z,96012.52
2023-01-26T03:02:56.064Z,96017.89
2023-01-26T03:05:26.058Z,96013.98
2023-01-26T03:07:54.657Z,96012.05
2023-01-26T03:10:27.349Z,96006.61
2023-01-26T03:12:55.527Z,96006.92
2023-01-26T03:15:43.303Z,96000.66
2023-01-26T03:18:32.749Z,96001.58
2023-01-26T03:21:31.003Z,95995.41
2023-01-26T03:24:18.320Z,95993.57
2023-01-26T03:27:05.958Z,95993.67
2023-01-26T03:29:34.729Z,95989.72
2023-01-26T03:32:03.497Z,95987.63
2023-01-26T03:34:32.031Z,95986.13
2023-01-26T03:37:00.235Z,95993.86
2023-01-26T03:39:53.072Z,95994.44
2023-01-26T03:42:39.989Z,95986.87
2023-01-26T03:45:27.208Z,95986.71
2023-01-26T03:48:21.992Z,95981.91
2023-01-26T03:51:09.034Z,95979.10
2023-01-26T03:53:56.851Z,95981.38
2023-01-26T03:56:25.180Z,95977.36
2023-01-26T03:58:56.912Z,95977.63
2023-01-26T04:01:27.946Z,95978.06
2023-01-26T04:04:17.127Z,95972.85
2023-01-26T04:07:06.935Z,95959.77
2023-01-26T04:09:37.320Z,95960.86
2023-01-26T04:12:06.114Z,95963.46
2023-01-26T04:14:58.140Z,95958.92
2023-01-26T04:17:46.815Z,95960.07
2023-01-26T04:20:34.672Z,95957.39
2023-01-26T04:23:03.430Z,95958.79
2023-01-26T04:25:31.902Z,95959.95
2023-01-26T04:27:59.918Z,95959.70
2023-01-26T04:30:28.082Z,95957.73
2023-01-26T04:32:56.842Z,95951.76
2023-01-26T04:35:25.436Z,95950.59
2023-01-26T04:37:54.209Z,95947.46
2023-01-26T04:40:24.956Z,95949.69
2023-01-26T04:42:53.461Z,95947.39
2023-01-26T04:45:21.610Z,95946.09
2023-01-26T04:47:51.157Z,95947.09
2023-01-26T04:50:19.925Z,95941.74
2023-01-26T04:52:49.010Z,95934.63
2023-01-26T04:55:18.340Z,95931.11
2023-01-26T04:57:47.295Z,95929.68
2023-01-26T05:00:15.687Z,95932.27
2023-01-26T05:02:43.974Z,95929.66
2023-01-26T05:05:15.416Z,95931.61
2023-01-26T05:07:45.025Z,95937.70
2023-01-26T05:10:15.961Z,95949.00
2023-01-26T05:12:58.834Z,95949.46
2023-01-26T05:15:30.243Z,95955.30
2023-01-26T05:18:06.618Z,95954.45
2023-01-26T05:20:50.135Z,95952.90
2023-01-26T05:23:29.277Z,95949.04
2023-01-26T05:26:09.733Z,95946.34
2023-01-26T05:28:46.106Z,95943.84
2023-01-26T05:31:14.426Z,95941.45
2023-01-26T05:33:42.670Z,95938.39
2023-01-26T05:36:13.908Z,95936.92
2023-01-26T05:38:43.420Z,95932.35
2023-01-26T05:41:12.549Z,95937.95
2023-01-26T05:43:57.177Z,95943.33
2023-01-26T05:46:36.842Z,95941.44
2023-01-26T05:49:05.202Z,95933.95
2023-01-26T05:51:33.788Z,95932.88
2023-01-26T05:54:02.173Z,95935.35
2023-01-26T05:56:30.682Z,95938.69
2023-01-26T05:59:02.467Z,95938.52
2023-01-26T06:01:31.942Z,95932.97
2023-01-26T06:04:01.812Z,95936.39
2023-01-26T06:06:37.197Z,95934.95
2023-01-26T06:09:27.700Z,95936.34
2023-01-26T06:12:18.208Z,95930.38
2023-01-26T06:15:12.907Z,95927.84
2023-01-26T06:17:45.363Z,95928.20
2023-01-26T06:20:16.132Z,95927.84
2023-01-26T06:22:51.974Z,95926.05
2023-01-26T06:25:20.229Z,95923.73
2023-01-26T06:27:48.398Z,95921.53
2023-01-26T06:30:24.973Z,95922.67
2023-01-26T06:32:54.069Z,95922.27
2023-01-26T06:35:22.854Z,95926.57
2023-01-26T06:37:53.392Z,95928.61
2023-01-26T06:40:21.894Z,95927.34
2023-01-26T06:42:51.381Z,95925.77
2023-01-26T06:45:20.887Z,95927.42
2023-01-26T06:47:51.102Z,95924.11
2023-01-26T06:50:21.441Z,95923.63
2023-01-26T06:52:57.081Z,95923.83
2023-01-26T06:55:52.505Z,95921.50
2023-01-26T06:58:43.961Z,95918.19
2023-01-26T07:01:36.874Z,95919.88
2023-01-26T07:04:05.698Z,95917.60
2023-01-26T07:06:33.764Z,95917.81
2023-01-26T07:09:02.882Z,95918.33
2023-01-26T07:11:32.787Z,95919.38
2023-01-26T07:14:01.064Z,95919.05
2023-01-26T07:16:30.552Z,95914.48
2023-01-26T07:19:01.623Z,95915.23
2023-01-26T07:21:29.963Z,95915.70
2023-01-26T07:23:58.166Z,95914.40
2023-01-26T07:26:28.316Z,95910.11
2023-01-26T07:28:58.089Z,95907.19
2023-01-26T07:31:26.640Z,95909.75
2023-01-26T07:33:54.804Z,95910.41
2023-01-26T07:36:24.071Z,95901.48
2023-01-26T07:38:53.345Z,95900.08
2023-01-26T07:41:21.461Z,95898.04
2023-01-26T07:43:51.269Z,95896.93
2023-01-26T07:46:21.159Z,95894.70
2023-01-26T07:48:49.673Z,95896.94
2023-01-26T07:51:17.866Z,95900.39
2023-01-26T07:53:50.044Z,95907.06
2023-01-26T07:56:22.078Z,95912.23
2023-01-26T07:58:51.752Z,95907.52
2023-01-26T08:01:20.536Z,95905.15
2023-01-26T08:03:50.691Z,95907.88
2023-01-26T08:06:19.360Z,95904.45
2023-01-26T08:08:51.642Z,95904.59
2023-01-26T08:11:22.679Z,95899.85
2023-01-26T08:13:50.982Z,95900.02
2023-01-26T08:16:19.290Z,95900.33
2023-01-26T08:18:47.923Z,95896.42
2023-01-26T08:21:17.312Z,95895.17
2023-01-26T08:23:52.026Z,95893.64
2023-01-26T08:26:20.434Z,95893.12
2023-01-26T08:28:49.199Z,95892.48
2023-01-26T08:31:20.147Z,95889.95
2023-01-26T08:33:51.026Z,95892.96
2023-01-26T08:36:22.082Z,95890.73
2023-01-26T08:38:51.545Z,95891.98
2023-01-26T08:41:19.825Z,95891.73
2023-01-26T08:43:48.242Z,95894.82
2023-01-26T08:46:16.828Z,95892.05
2023-01-26T08:48:45.276Z,95891.52
2023-01-26T08:51:13.553Z,95888.08
2023-01-26T08:53:41.633Z,95887.37
2023-01-26T08:56:11.543Z,95885.27
2023-01-26T08:58:40.744Z,95882.80
2023-01-26T09:01:11.273Z,95886.76
2023-01-26T09:03:39.781Z,95882.70
2023-01-26T09:06:08.924Z,95877.41
2023-01-26T09:08:38.041Z,95866.91
2023-01-26T09:11:07.475Z,95867.30
2023-01-26T09:13:37.383Z,95854.52
2023-01-26T09:16:12.025Z,95851.23
2023-01-26T09:18:40.376Z,95851.65
2023-01-26T09:21:09.450Z,95856.30
2023-01-26T09:23:38.885Z,95858.02
2023-01-26T09:26:07.209Z,95847.34
2023-01-26T09:28:35.258Z,95845.85
2023-01-26T09:31:05.492Z,95846.59
2023-01-26T09:33:34.163Z,95846.90
2023-01-26T09:36:07.013Z,95847.67
2023-01-26T09:38:35.724Z,95847.08
2023-01-26T09:41:04.310Z,95846.98
2023-01-26T09:43:59.239Z,95843.82
2023-01-26T09:46:28.021Z,95840.52
2023-01-26T09:49:11.454Z,95835.40
2023-01-26T09:51:45.492Z,95831.52
2023-01-26T09:54:16.300Z,95832.91
2023-01-26T09:56:44.566Z,95827.91
2023-01-26T09:59:35.474Z,95833.31
2023-01-26T10:02:15.885Z,95828.65
2023-01-26T10:04:47.589Z,95823.85
2023-01-26T10:07:15.989Z,95823.90
2023-01-26T10:09:51.841Z,95822.61
2023-01-26T10:12:21.857Z,95819.04
2023-01-26T10:14:59.141Z,95824.01
2023-01-26T10:17:41.958Z,95819.23
2023-01-26T10:20:10.551Z,95819.04
2023-01-26T10:22:45.994Z,95817.21
2023-01-26T10:25:17.557Z,95812.79
2023-01-26T10:27:46.300Z,95807.43
2023-01-26T10:30:16.842Z,95804.86
2023-01-26T10:32:46.525Z,95798.66
2023-01-26T10:35:18.361Z,95795.52
2023-01-26T10:37:46.695Z,95794.77
2023-01-26T10:40:15.114Z,95794.52
2023-01-26T10:42:53.638Z,95795.67
2023-01-26T10:45:24.820Z,95789.25
2023-01-26T10:48:19.772Z,95788.90
2023-01-26T10:50:48.579Z,95786.18
2023-01-26T10:53:17.362Z,95775.95
2023-01-26T10:55:58.483Z,95768.17
2023-01-26T10:58:46.606Z,95760.15
2023-01-26T11:01:19.055Z,95757.89
2023-01-26T11:03:59.613Z,95752.64
2023-01-26T11:06:29.802Z,95751.68
2023-01-26T11:09:10.418Z,95750.77
2023-01-26T11:11:38.885Z,95743.14
2023-01-26T11:14:16.901Z,95740.65
2023-01-26T11:16:55.718Z,95736.28
2023-01-26T11:19:42.747Z,95731.66
2023-01-26T11:22:19.195Z,95723.00
2023-01-26T11:25:10.775Z,95718.95
2023-01-26T11:27:40.146Z,95718.63
2023-01-26T11:30:11.932Z,95716.52
2023-01-26T11:32:49.909Z,95719.06
2023-01-26T11:35:21.253Z,95711.48
2023-01-26T11:37:58.549Z,95706.25
2023-01-26T11:40:31.251Z,95699.45
2023-01-26T11:43:14.776Z,95695.14
2023-01-26T11:53:24.091Z,95688.64
2023-01-26T11:55:58.380Z,95687.22
2023-01-26T11:58:41.608Z,95688.26
2023-01-26T12:01:20.595Z,95683.15
2023-01-26T12:03:52.506Z,95691.52
2023-01-26T12:06:36.610Z,95684.28
2023-01-26T12:09:04.950Z,95682.67
2023-01-26T12:11:40.341Z,95680.27
2023-01-26T12:14:08.860Z,95677.18
2023-01-26T12:16:43.225Z,95669.40
2023-01-26T12:19:23.848Z,95673.27
2023-01-26T12:21:54.972Z,95670.89
2023-01-26T12:25:04.826Z,95671.31
2023-01-26T12:27:22.577Z,95671.95
2023-01-26T12:30:05.428Z,95670.55
2023-01-26T12:32:33.921Z,95659.11
2023-01-26T12:35:02.280Z,95650.93
2023-01-26T12:37:42.719Z,95652.13
2023-01-26T12:40:18.790Z,95647.09
2023-01-26T12:43:00.185Z,95643.73
2023-01-26T12:45:30.504Z,95638.36
2023-01-26T12:48:08.409Z,95641.36
2023-01-26T12:50:41.079Z,95646.98
2023-01-26T12:53:24.752Z,95651.44
2023-01-26T12:55:55.772Z,95654.09
2023-01-26T12:58:30.167Z,95653.27
2023-01-26T13:01:04.377Z,95653.36
2023-01-26T13:04:01.597Z,95645.52
2023-01-26T13:06:29.974Z,95641.67
2023-01-26T13:08:58.068Z,95638.02
2023-01-26T13:11:44.700Z,95637.89
2023-01-26T13:14:28.673Z,95639.55
2023-01-26T13:16:58.179Z,95637.50
2023-01-26T13:19:49.353Z,95640.91
2023-01-26T13:22:24.028Z,95642.06
2023-01-26T13:24:59.581Z,95640.79
2023-01-26T13:27:29.073Z,95639.77
2023-01-26T13:29:57.474Z,95641.40
2023-01-26T13:32:25.953Z,95636.58
2023-01-26T13:34:58.524Z,95633.45
2023-01-26T13:37:47.077Z,95635.16
2023-01-26T13:40:24.178Z,95634.26
2023-01-26T13:42:59.016Z,95637.60
2023-01-26T13:45:37.536Z,95639.09
2023-01-26T13:48:12.177Z,95641.67
2023-01-26T13:50:40.930Z,95641.44
2023-01-26T13:53:27.637Z,95636.48
2023-01-26T13:55:59.195Z,95629.30
2023-01-26T13:58:27.895Z,95625.13
2023-01-26T14:01:00.782Z,95625.91
2023-01-26T14:03:31.146Z,95620.69
2023-01-26T14:06:01.164Z,95620.36
2023-01-26T14:08:30.133Z,95617.21
2023-01-26T14:11:00.003Z,95616.70
2023-01-26T14:13:31.639Z,95615.58
2023-01-26T14:16:01.266Z,95617.83
2023-01-26T14:18:29.878Z,95616.94
2023-01-26T14:20:59.691Z,95614.94
2023-01-26T14:23:29.204Z,95607.83
2023-01-26T14:26:20.415Z,95603.91
2023-01-26T14:28:48.816Z,95597.62
2023-01-26T14:31:20.203Z,95587.20
2023-01-26T14:33:49.244Z,95590.10
2023-01-26T14:36:20.006Z,95588.42
2023-01-26T14:38:49.896Z,95586.36
2023-01-26T14:41:18.275Z,95581.83
2023-01-26T14:43:46.661Z,95583.17
